createdAt,value
2018-11-21T00:01:42.337Z,17.43
2018-11-21T00:04:23.784Z,16.20
2018-11-21T00:07:05.378Z,16.67
2018-11-21T00:09:46.165Z,16.73
2018-11-21T00:12:27.597Z,17.10
2018-11-21T00:15:10.189Z,17.23
2018-11-21T00:17:51.887Z,17.70
2018-11-21T00:20:33.287Z,15.93
2018-11-21T00:23:14.924Z,16.97
2018-11-21T00:25:56.122Z,16.50
2018-11-21T00:28:37.505Z,16.73
2018-11-21T00:31:19.069Z,17.33
2018-11-21T00:33:59.862Z,17.73
2018-11-21T00:36:40.739Z,17.10
2018-11-21T00:39:21.731Z,15.73
2018-11-21T00:42:02.883Z,16.50
2018-11-21T00:44:44.195Z,17.63
2018-11-21T00:47:25.398Z,18.17
2018-11-21T00:50:06.760Z,16.60
2018-11-21T00:52:47.484Z,17.53
2018-11-21T00:55:28.640Z,17.50
2018-11-21T00:58:10.474Z,17.33
2018-11-21T01:00:52.112Z,16.97
2018-11-21T01:03:33.432Z,17.13
2018-11-21T01:06:14.222Z,16.87
2018-11-21T01:08:55.462Z,16.87
2018-11-21T01:11:37.222Z,17.13
2018-11-21T01:14:18.448Z,16.57
2018-11-21T01:16:59.592Z,16.27
2018-11-21T01:19:41.020Z,17.30
2018-11-21T01:22:22.060Z,17.33
2018-11-21T01:25:03.100Z,18.17
2018-11-21T01:27:44.296Z,18.40
2018-11-21T01:30:25.646Z,18.17
2018-11-21T01:33:09.681Z,16.87
2018-11-21T01:35:48.522Z,16.63
2018-11-21T01:38:29.486Z,16.37
2018-11-21T01:41:10.894Z,17.40
2018-11-21T01:43:51.835Z,17.47
2018-11-21T01:46:33.002Z,17.90
2018-11-21T01:49:14.298Z,17.30
2018-11-21T01:51:55.397Z,17.33
2018-11-21T01:54:36.435Z,17.10
2018-11-21T01:57:17.700Z,17.13
2018-11-21T01:59:58.652Z,18.07
2018-11-21T02:02:39.805Z,17.43
2018-11-21T02:05:20.616Z,16.60
2018-11-21T02:08:01.694Z,17.23
2018-11-21T02:10:43.220Z,18.43
2018-11-21T02:13:24.322Z,18.13
2018-11-21T02:16:05.608Z,17.90
2018-11-21T02:18:46.973Z,17.93
2018-11-21T02:21:28.244Z,18.73
2018-11-21T02:24:09.219Z,18.80
2018-11-21T02:26:50.112Z,18.60
2018-11-21T02:29:30.904Z,18.67
2018-11-21T02:32:12.219Z,18.83
2018-11-21T02:34:53.416Z,18.60
2018-11-21T02:37:35.211Z,18.70
2018-11-21T02:40:16.391Z,19.83
2018-11-21T02:42:58.150Z,19.07
2018-11-21T02:45:39.319Z,19.73
2018-11-21T02:48:20.718Z,20.23
2018-11-21T02:51:02.578Z,20.87
2018-11-21T02:53:43.379Z,21.27
2018-11-21T02:56:24.616Z,20.63
2018-11-21T02:59:05.540Z,19.80
2018-11-21T03:01:46.562Z,20.37
2018-11-21T03:04:28.194Z,21.63
2018-11-21T03:07:09.272Z,19.93
2018-11-21T03:09:50.410Z,21.13
2018-11-21T03:12:32.519Z,21.20
2018-11-21T03:15:13.693Z,21.13
2018-11-21T03:17:55.032Z,20.27
2018-11-21T03:20:36.688Z,20.90
2018-11-21T03:23:17.996Z,20.33
2018-11-21T03:26:00.703Z,19.37
2018-11-21T03:28:42.001Z,20.20
2018-11-21T03:31:23.264Z,21.60
2018-11-21T03:34:04.703Z,18.73
2018-11-21T03:36:50.258Z,19.70
2018-11-21T03:39:30.985Z,20.73
2018-11-21T03:42:12.071Z,19.17
2018-11-21T03:44:53.131Z,19.13
2018-11-21T03:47:34.640Z,19.30
2018-11-21T03:50:16.150Z,20.43
2018-11-21T03:52:57.271Z,19.73
2018-11-21T03:55:38.642Z,20.00
2018-11-21T03:58:19.533Z,20.63
2018-11-21T04:01:00.577Z,19.67
2018-11-21T04:03:41.574Z,19.20
2018-11-21T04:06:23.418Z,19.83
2018-11-21T04:09:05.362Z,19.97
2018-11-21T04:11:46.188Z,20.67
2018-11-21T04:14:26.933Z,20.57
2018-11-21T04:17:08.407Z,20.70
2018-11-21T04:19:49.782Z,20.50
2018-11-21T04:22:31.152Z,21.60
2018-11-21T04:25:12.845Z,20.80
2018-11-21T04:27:53.511Z,20.70
2018-11-21T04:30:35.117Z,19.63
2018-11-21T04:33:16.155Z,20.17
2018-11-21T04:35:57.366Z,19.93
2018-11-21T04:38:38.384Z,20.10
2018-11-21T04:41:19.973Z,22.30
2018-11-21T04:44:01.331Z,21.60
2018-11-21T04:46:42.164Z,22.00
2018-11-21T04:49:23.687Z,20.00
2018-11-21T04:52:04.871Z,21.67
2018-11-21T04:54:46.067Z,18.97
2018-11-21T04:57:27.658Z,20.43
2018-11-21T05:00:09.614Z,20.37
2018-11-21T05:02:50.422Z,21.57
2018-11-21T05:05:31.808Z,20.10
2018-11-21T05:08:13.173Z,19.43
2018-11-21T05:10:54.182Z,19.40
2018-11-21T05:13:35.474Z,19.40
2018-11-21T05:16:16.427Z,19.90
2018-11-21T05:18:57.842Z,20.30
2018-11-21T05:21:39.126Z,20.03
2018-11-21T05:24:20.427Z,19.87
2018-11-21T05:27:01.444Z,19.73
2018-11-21T05:29:42.578Z,19.83
2018-11-21T05:32:23.610Z,20.53
2018-11-21T05:35:05.239Z,18.90
2018-11-21T05:37:46.206Z,20.23
2018-11-21T05:40:27.414Z,19.13
2018-11-21T05:43:08.439Z,19.37
2018-11-21T05:45:49.617Z,18.97
2018-11-21T05:48:30.811Z,19.90
2018-11-21T05:51:11.570Z,19.43
2018-11-21T05:53:52.955Z,21.57
2018-11-21T05:56:34.478Z,24.17
2018-11-21T05:59:15.805Z,21.40
2018-11-21T06:01:56.824Z,20.80
2018-11-21T06:04:38.105Z,20.60
2018-11-21T06:07:19.888Z,20.27
2018-11-21T06:10:01.746Z,20.83
2018-11-21T06:12:43.257Z,20.53
2018-11-21T06:15:24.228Z,20.17
2018-11-21T06:18:05.811Z,20.93
2018-11-21T06:20:47.385Z,20.67
2018-11-21T06:23:28.727Z,20.93
2018-11-21T06:26:10.387Z,19.13
2018-11-21T06:28:51.567Z,20.43
2018-11-21T06:31:32.456Z,19.47
2018-11-21T06:34:13.905Z,20.00
2018-11-21T06:36:55.257Z,19.53
2018-11-21T06:39:36.275Z,18.90
2018-11-21T06:42:17.501Z,20.70
2018-11-21T06:44:58.781Z,20.33
2018-11-21T06:47:40.294Z,20.43
2018-11-21T06:50:22.011Z,21.07
2018-11-21T06:53:03.889Z,21.03
2018-11-21T06:55:45.078Z,20.27
2018-11-21T06:58:25.856Z,20.80
2018-11-21T07:01:06.629Z,20.20
2018-11-21T07:03:47.324Z,20.00
2018-11-21T07:06:28.060Z,20.40
2018-11-21T07:09:09.514Z,21.10
2018-11-21T07:11:50.825Z,20.67
2018-11-21T07:14:32.337Z,20.73
2018-11-21T07:17:13.700Z,20.13
2018-11-21T07:19:55.209Z,20.97
2018-11-21T07:22:37.222Z,20.47
2018-11-21T07:25:18.133Z,21.07
2018-11-21T07:27:59.397Z,22.00
2018-11-21T07:30:41.000Z,21.43
2018-11-21T07:33:22.332Z,20.37
2018-11-21T07:36:04.267Z,20.20
2018-11-21T07:38:45.234Z,20.10
2018-11-21T07:41:26.345Z,20.67
2018-11-21T07:44:07.633Z,19.63
2018-11-21T07:46:48.980Z,20.87
2018-11-21T07:49:30.553Z,19.90
2018-11-21T07:52:12.018Z,20.07
2018-11-21T07:54:53.390Z,20.77
2018-11-21T07:57:42.030Z,21.00
2018-11-21T08:00:23.554Z,19.83
2018-11-21T08:03:05.222Z,22.10
2018-11-21T08:05:48.803Z,22.73
2018-11-21T08:08:48.794Z,21.60
2018-11-21T08:11:51.682Z,22.03
2018-11-21T08:14:46.580Z,20.73
2018-11-21T08:17:46.324Z,21.40
2018-11-21T08:20:49.360Z,21.30
2018-11-21T08:23:55.529Z,21.00
2018-11-21T08:26:53.254Z,24.13
2018-11-21T08:29:35.076Z,23.37
2018-11-21T08:32:15.702Z,23.37
2018-11-21T08:34:59.592Z,22.63
2018-11-21T08:37:41.277Z,21.13
2018-11-21T08:40:22.350Z,21.07
2018-11-21T08:43:03.684Z,21.47
2018-11-21T08:45:45.612Z,20.67
2018-11-21T08:48:27.108Z,21.10
2018-11-21T08:51:07.988Z,21.43
2018-11-21T08:53:49.425Z,20.93
2018-11-21T08:56:30.977Z,21.33
2018-11-21T08:59:12.491Z,23.17
2018-11-21T09:01:53.996Z,21.67
2018-11-21T09:04:34.827Z,22.43
2018-11-21T09:07:16.386Z,19.97
2018-11-21T09:09:57.410Z,21.57
2018-11-21T09:12:38.679Z,21.53
2018-11-21T09:15:20.019Z,19.80
2018-11-21T09:18:01.360Z,22.43
2018-11-21T09:20:42.975Z,20.10
2018-11-21T09:23:24.270Z,21.77
2018-11-21T09:26:05.189Z,22.57
2018-11-21T09:28:46.355Z,21.17
2018-11-21T09:31:27.745Z,21.30
2018-11-21T09:34:09.130Z,22.23
2018-11-21T09:36:50.784Z,24.23
2018-11-21T09:39:31.802Z,23.43
2018-11-21T09:42:13.797Z,23.20
2018-11-21T09:44:55.023Z,22.97
2018-11-21T09:47:36.661Z,22.50
2018-11-21T09:50:19.534Z,23.27
2018-11-21T09:53:00.611Z,22.87
2018-11-21T09:55:41.705Z,22.17
2018-11-21T09:58:23.041Z,23.33
2018-11-21T10:01:04.141Z,23.30
2018-11-21T10:03:45.108Z,23.27
2018-11-21T10:06:26.545Z,23.70
2018-11-21T10:09:10.567Z,23.27
2018-11-21T10:11:51.389Z,21.63
2018-11-21T10:14:34.819Z,22.27
2018-11-21T10:17:14.328Z,21.33
2018-11-21T10:19:55.435Z,21.17
2018-11-21T10:22:36.724Z,21.97
2018-11-21T10:25:18.168Z,22.13
2018-11-21T10:27:59.232Z,21.87
2018-11-21T10:30:40.825Z,21.73
2018-11-21T10:33:24.321Z,21.70
2018-11-21T10:36:05.431Z,23.07
2018-11-21T10:38:47.095Z,22.50
2018-11-21T10:41:27.967Z,22.53
2018-11-21T10:44:09.107Z,22.83
2018-11-21T10:46:50.032Z,22.60
2018-11-21T10:49:31.056Z,21.83
2018-11-21T10:52:12.233Z,22.57
2018-11-21T10:54:53.406Z,22.57
2018-11-21T10:57:34.203Z,24.00
2018-11-21T11:00:34.113Z,23.70
2018-11-21T11:03:33.960Z,22.50
2018-11-21T11:06:33.783Z,21.27
2018-11-21T11:09:33.586Z,22.10
2018-11-21T11:12:33.425Z,20.93
2018-11-21T11:15:23.518Z,20.43
2018-11-21T11:18:23.483Z,21.33
2018-11-21T11:21:23.245Z,21.10
2018-11-21T11:24:23.066Z,21.20
2018-11-21T11:27:22.898Z,20.97
2018-11-21T11:30:23.746Z,21.63
2018-11-21T11:33:23.344Z,21.50
2018-11-21T11:36:23.326Z,22.47
2018-11-21T11:39:22.666Z,23.37
2018-11-21T11:42:22.164Z,21.90
2018-11-21T11:48:25.099Z,22.83
2018-11-21T11:51:23.902Z,22.20
2018-11-21T11:54:30.099Z,22.67
2018-11-21T11:57:30.006Z,21.80
2018-11-21T12:00:29.559Z,21.00
2018-11-21T12:03:29.579Z,22.10
2018-11-21T12:06:29.605Z,21.87
2018-11-21T12:12:18.883Z,22.27
2018-11-21T12:15:18.395Z,22.70
2018-11-21T12:18:18.371Z,22.43
2018-11-21T12:24:03.447Z,22.73
2018-11-21T12:27:03.727Z,22.17
2018-11-21T12:30:03.141Z,24.27
2018-11-21T12:33:06.063Z,22.30
2018-11-21T12:35:49.791Z,23.23
2018-11-21T12:38:52.859Z,22.37
2018-11-21T12:41:53.132Z,22.93
2018-11-21T12:44:45.665Z,27.40
2018-11-21T12:47:32.572Z,23.30
2018-11-21T12:50:19.253Z,22.60
2018-11-21T12:53:29.579Z,24.83
2018-11-21T12:56:36.932Z,23.53
2018-11-21T12:59:44.268Z,22.70
2018-11-21T13:02:51.579Z,21.73
2018-11-21T13:05:38.883Z,23.33
2018-11-21T13:08:46.198Z,22.43
2018-11-21T13:11:53.544Z,22.67
2018-11-21T13:15:00.852Z,21.97
2018-11-21T13:17:56.274Z,22.53
2018-11-21T13:24:21.196Z,21.37
2018-11-21T13:27:28.815Z,21.80
2018-11-21T13:30:36.174Z,21.77
2018-11-21T13:37:08.617Z,21.87
2018-11-21T13:40:16.178Z,21.97
2018-11-21T13:43:23.511Z,22.47
2018-11-21T13:46:30.822Z,21.87
2018-11-21T13:49:38.204Z,21.23
2018-11-21T13:52:45.518Z,22.83
2018-11-21T13:55:34.441Z,22.63
2018-11-21T13:58:23.044Z,21.33
2018-11-21T14:01:12.000Z,21.67
2018-11-21T14:06:49.985Z,25.40
2018-11-21T14:12:46.451Z,24.37
2018-11-21T14:15:35.438Z,23.97
2018-11-21T14:18:24.053Z,22.97
2018-11-21T14:21:12.686Z,23.33
2018-11-21T14:24:01.347Z,23.23
2018-11-21T14:26:50.267Z,23.60
2018-11-21T14:29:39.244Z,22.10
2018-11-21T14:32:27.896Z,24.03
2018-11-21T14:35:17.385Z,22.47
2018-11-21T14:38:06.068Z,23.33
2018-11-21T14:40:54.695Z,22.73
2018-11-21T14:43:43.360Z,23.57
2018-11-21T14:47:15.645Z,26.13
2018-11-21T14:50:06.699Z,26.00
2018-11-21T14:52:55.326Z,25.00
2018-11-21T14:55:43.945Z,25.03
2018-11-21T14:58:32.581Z,25.27
2018-11-21T15:01:21.172Z,25.83
2018-11-21T15:04:10.038Z,24.83
2018-11-21T15:06:58.948Z,26.70
2018-11-21T15:09:47.572Z,25.17
2018-11-21T15:12:36.294Z,23.93
2018-11-21T15:18:26.170Z,25.47
2018-11-21T15:21:16.635Z,24.70
2018-11-21T15:24:03.413Z,24.00
2018-11-21T15:26:52.020Z,23.67
2018-11-21T15:29:40.979Z,25.60
2018-11-21T15:36:13.765Z,24.70
2018-11-21T15:39:02.369Z,23.70
2018-11-21T15:41:50.982Z,24.20
2018-11-21T15:44:39.661Z,24.13
2018-11-21T15:47:28.588Z,24.33
2018-11-21T15:50:17.921Z,25.70
2018-11-21T15:56:08.195Z,26.57
2018-11-21T16:02:04.839Z,26.03
2018-11-21T16:04:53.455Z,27.23
2018-11-21T16:07:42.350Z,27.27
2018-11-21T16:10:49.605Z,25.83
2018-11-21T16:13:38.227Z,26.67
2018-11-21T16:16:26.817Z,26.13
2018-11-21T16:19:58.639Z,24.53
2018-11-21T16:22:47.233Z,26.43
2018-11-21T16:25:35.980Z,25.60
2018-11-21T16:28:24.685Z,25.70
2018-11-21T16:31:13.607Z,25.53
2018-11-21T16:34:02.256Z,25.53
2018-11-21T16:36:51.000Z,25.03
2018-11-21T16:39:39.671Z,23.90
2018-11-21T16:42:28.355Z,25.20
2018-11-21T16:45:18.629Z,24.13
2018-11-21T16:48:07.258Z,23.50
2018-11-21T16:50:55.877Z,24.63
2018-11-21T16:53:44.556Z,26.00
2018-11-21T16:56:33.514Z,25.73
2018-11-21T16:59:22.149Z,26.67
2018-11-21T17:02:10.735Z,25.10
2018-11-21T17:04:59.364Z,26.00
2018-11-21T17:07:47.976Z,25.73
2018-11-21T17:10:37.029Z,25.37
2018-11-21T17:13:25.581Z,26.20
2018-11-21T17:19:15.782Z,26.10
2018-11-21T17:22:04.413Z,24.77
2018-11-21T17:24:53.147Z,25.23
2018-11-21T17:30:50.072Z,25.33
2018-11-21T17:33:38.701Z,26.00
2018-11-21T17:39:25.058Z,25.00
2018-11-21T17:42:13.668Z,25.43
2018-11-21T17:45:02.317Z,25.80
2018-11-21T17:47:50.915Z,23.80
2018-11-21T17:53:40.812Z,23.27
2018-11-21T17:56:29.406Z,25.20
2018-11-21T17:59:18.480Z,27.67
2018-11-21T18:02:07.083Z,25.00
2018-11-21T18:04:56.112Z,25.07
2018-11-21T18:07:44.918Z,25.43
2018-11-21T18:10:35.234Z,25.53
2018-11-21T18:13:23.841Z,25.63
2018-11-21T18:16:13.156Z,24.70
2018-11-21T18:19:01.754Z,26.47
2018-11-21T18:21:50.432Z,26.40
2018-11-21T18:24:39.070Z,25.67
2018-11-21T18:27:27.739Z,28.03
2018-11-21T18:30:17.939Z,25.33
2018-11-21T18:33:06.619Z,25.17
2018-11-21T18:35:55.200Z,27.13
2018-11-21T18:38:43.828Z,25.87
2018-11-21T18:41:32.429Z,29.73
2018-11-21T18:44:21.376Z,27.00
2018-11-21T18:47:10.060Z,26.50
2018-11-21T18:49:58.719Z,26.33
2018-11-21T18:52:48.037Z,27.00
2018-11-21T18:55:56.021Z,28.80
2018-11-21T18:59:03.878Z,23.73
2018-11-21T19:01:52.507Z,24.83
2018-11-21T19:04:41.124Z,24.30
2018-11-21T19:07:29.755Z,24.37
2018-11-21T19:10:18.356Z,24.80
2018-11-21T19:13:07.471Z,25.27
2018-11-21T19:15:56.091Z,25.33
2018-11-21T19:18:44.741Z,24.20
2018-11-21T19:21:33.358Z,24.40
2018-11-21T19:24:21.979Z,25.57
2018-11-21T19:27:10.563Z,24.33
2018-11-21T19:29:59.205Z,24.63
2018-11-21T19:32:47.980Z,24.67
2018-11-21T19:35:36.641Z,25.17
2018-11-21T19:38:27.433Z,24.90
2018-11-21T19:41:16.169Z,23.63
2018-11-21T19:44:04.784Z,25.37
2018-11-21T19:46:53.450Z,24.07
2018-11-21T19:52:50.310Z,24.33
2018-11-21T19:55:39.031Z,24.67
2018-11-21T19:58:27.687Z,23.50
2018-11-21T20:07:25.557Z,24.00
2018-11-21T20:10:15.073Z,24.47
2018-11-21T20:13:04.170Z,25.57
2018-11-21T20:15:52.821Z,23.13
2018-11-21T20:18:41.460Z,24.27
2018-11-21T20:21:30.043Z,24.20
2018-11-21T20:24:18.671Z,24.37
2018-11-21T20:27:07.264Z,23.60
2018-11-21T20:29:55.986Z,23.47
2018-11-21T20:32:44.633Z,24.83
2018-11-21T20:35:26.290Z,24.20
2018-11-21T20:38:07.111Z,23.00
2018-11-21T20:40:48.437Z,24.93
2018-11-21T20:43:29.930Z,24.60
2018-11-21T20:46:11.079Z,23.30
2018-11-21T20:48:52.279Z,24.30
2018-11-21T20:51:33.952Z,24.07
2018-11-21T20:54:14.723Z,23.83
2018-11-21T20:56:55.677Z,23.57
2018-11-21T20:59:36.850Z,24.30
2018-11-21T21:02:19.065Z,24.20
2018-11-21T21:05:00.390Z,24.40
2018-11-21T21:07:42.370Z,25.03
2018-11-21T21:10:27.217Z,24.00
2018-11-21T21:13:08.204Z,24.93
2018-11-21T21:15:49.446Z,24.80
2018-11-21T21:18:30.853Z,23.50
2018-11-21T21:23:54.659Z,24.20
2018-11-21T21:26:35.965Z,24.17
2018-11-21T21:29:17.086Z,23.67
2018-11-21T21:31:58.416Z,23.87
2018-11-21T21:34:39.690Z,23.67
2018-11-21T21:37:21.054Z,24.73
2018-11-21T21:40:02.166Z,25.03
2018-11-21T21:42:43.621Z,24.23
2018-11-21T21:45:26.472Z,25.10
2018-11-21T21:48:07.911Z,24.73
2018-11-21T21:50:49.103Z,25.90
